x

Cape Cleare - 17 Nm South Of Montague Is, Ak (46076) Wave Buoy

4:50pm - Wed 18th Jan 2017 All times are AKST. -9 hours from GMT.

  • Sig Wave height 5.2ft
  • Swell Direction
  • Peak Period 12s
  • Average Period 6s
  • Wind
    13mph, 18mph gusts
  • Sea Temp 44°f
  • Air Temp 31°f
  • Sea Pressure 978.4mb
  • Cape Cleare - 17 Nm South Of Montague Is,  Ak
  • Cape Cleare - 17 Nm South Of Montague Is,  Ak

More Historic Weather Station data

Upgrade to MSW Pro to gain access to the past 30 days of data for over 8000 Wavebouys and Weather Stations around the globe.

Join Pro

Comparision Forecast

View Surf forecast
   
Wed 01/18 4:50pm 5ft 12s 6s 13 18 mph 978.4mb 44f 31f
3:50pm 4.5ft 12s 6s 11 16 mph 978.9mb 43f 31f
2:50pm 4.5ft 13s 6s 9 13 mph 979.2mb 43f 31f
1:50pm 4.5ft 11s 6s 9 13 mph 979.4mb 43f 31f
12:50pm 4.5ft 11s 6s 7 11 mph 979.9mb 43f 31f
11:50am 4.5ft 6s 6s 7 9 mph 980.4mb 43f 31f
10:50am 5ft 11s 6s 9 11 mph 980.5mb 43f 31f
9:50am 4.5ft 11s 6s 9 11 mph 980.6mb 43f 31f
8:50am 4.5ft 10s 6s 7 11 mph 980.5mb 43f 30f
7:50am 4.5ft 11s 6s 7 9 mph 980.7mb 43f 30f
6:50am 4ft 10s 6s 9 13 mph 981.1mb 43f 30f
5:50am 4ft 11s 6s 9 16 mph 981.7mb 43f 29f
4:50am 4.5ft 11s 6s 13 18 mph 982.1mb 44f 29f
3:50am 4.5ft 10s 7s 16 20 mph 982.6mb 44f 29f
2:50am 5ft 11s 7s 16 20 mph 983mb 44f 29f
1:50am 5ft 11s 8s 11 16 mph 984mb 43f 28f
12:50am 5ft 11s 8s 9 13 mph 985mb 44f 28f
Tue 01/17 11:50pm 5.5ft 12s 8s 9 16 mph 985.6mb 43f 28f
10:50pm 5.5ft 10s 8s 11 13 mph 986.1mb 43f 28f
9:50pm 6ft 12s 8s 9 16 mph 986.3mb 43f 28f
8:50pm 6ft 11s 8s 2 7 mph 986.6mb 43f 27f
7:50pm 7ft 12s 8s 7 9 mph 986.7mb 43f 27f
6:50pm 7ft 12s 8s 2 7 mph 987mb 43f 26f
5:50pm 7ft 13s 8s 2 7 mph 987.2mb 43f 26f
4:50pm 7ft 12s 8s 2 7 mph 987.4mb 43f 26f
3:50pm 8ft 13s 8s 4 9 mph 987.9mb 43f 25f
2:50pm 8.5ft 13s 9s 4 11 mph 988.1mb 43f 25f
1:50pm 8.5ft 13s 8s 4 11 mph 988.5mb 43f 25f
12:50pm 9ft 14s 8s 9 16 mph 988.8mb 43f 24f
11:50am 9.5ft 11s 8s 11 18 mph 989mb 43f 24f
10:50am 10.5ft 13s 8s 11 18 mph 989.4mb 43f 24f
9:50am 10.5ft 14s 8s 16 25 mph 988.9mb 43f 24f
8:50am 12ft 14s 8s 20 25 mph 988.3mb 43f 24f
7:50am 12ft 12s 8s 18 22 mph 988mb 43f 24f
6:50am 12.5ft 12s 7s 20 27 mph 987.5mb 43f 23f
5:50am 13.5ft 13s 8s 20 31 mph 986.9mb 43f 24f
4:50am 14.5ft 15s 8s 25 31 mph 986.7mb 43f 24f
3:50am 15ft 15s 8s 27 36 mph 986.6mb 43f 24f
2:50am 17.5ft 15s 9s 27 34 mph 986.3mb 44f 25f
1:50am 17ft 15s 9s 31 40 mph 985.8mb 44f 25f
12:50am 17.5ft 15s 9s 29 40 mph 985.3mb 44f 24f
Mon 01/16 11:50pm 18ft 16s 9s 34 40 mph 983.6mb 43f 25f
10:50pm 20.5ft 16s 9s 36 43 mph 982mb 43f 25f
9:50pm 22.5ft 11s 9s 38 45 mph 980.2mb 43f 26f
8:50pm 22.5ft 15s 9s 38 47 mph 978.4mb 43f 27f
7:50pm 24.5ft 11s 10s 43 51 mph 976.5mb 43f 27f
6:50pm 22.5ft 10s 9s 43 54 mph 975.1mb 43f 26f
5:50pm 22.5ft 15s 9s 38 49 mph 974.1mb 43f 26f
4:50pm 19ft 11s 8s 38 47 mph 973.1mb 44f 26f
3:50pm 18.5ft 11s 8s 40 49 mph 972mb 44f 26f
2:50pm 17ft 11s 8s 38 49 mph 971.1mb 43f 26f
1:50pm 17.5ft 10s 8s 38 49 mph 971.1mb 44f 26f
12:50pm 15.5ft 9s 8s 40 47 mph 970.6mb 44f 27f
11:50am 14.5ft 11s 8s 34 43 mph 970.4mb 44f 29f
10:50am 13ft 11s 8s 29 36 mph 969.7mb 44f 32f
9:50am 11.5ft 11s 8s 27 31 mph 969mb 44f 34f
8:50am 11.5ft 11s 8s 20 29 mph 968.8mb 44f 36f
7:50am 11.5ft 11s 8s 20 25 mph 968.6mb 44f 37f
6:50am 10ft 11s 7s 22 27 mph 968.1mb 44f 38f
5:50am 10ft 11s 8s 18 22 mph 967.9mb 44f 38f
4:50am 10ft 11s 8s 11 16 mph 968.1mb 44f 37f
3:50am 9.5ft 11s 7s 18 22 mph 968mb 44f 37f
2:50am 10.5ft 11s 7s 22 27 mph 967.6mb 44f 36f
1:50am 12ft 11s 7s 25 31 mph 967.5mb 44f 36f
12:50am 11ft 11s 7s 27 31 mph 967.3mb 44f 37f
Sun 01/15 11:50pm 12ft 10s 7s 27 34 mph 967.4mb 44f 37f
10:50pm 13ft 10s 7s 27 34 mph 967.8mb 43f 37f
9:50pm 13.5ft 11s 7s 25 31 mph 968.6mb 43f 38f
8:50pm 14.5ft 8s 7s 29 38 mph 969.7mb 43f 38f
7:50pm 12ft 8s 6s 31 38 mph 971.3mb 43f 37f
6:50pm 12ft 8s 7s 31 36 mph 973mb 43f 36f
5:50pm 10.5ft 7s 6s 34 38 mph 974.6mb 43f 38f
4:50pm 9ft 12s 6s 31 40 mph 976.9mb 43f 38f
3:50pm 8ft 13s 6s 31 38 mph 979.7mb 43f 38f
2:50pm 8ft 11s 7s 25 29 mph 983mb 43f 36f
1:50pm 7.5ft 12s 7s 22 27 mph 985.9mb 43f 35f
12:50pm 8ft 11s 7s 20 29 mph 988.6mb 43f 35f
11:50am 9ft 13s 8s 25 31 mph 990.8mb 43f 32f
10:50am 9ft 11s 8s 18 25 mph 993.5mb 43f 33f
9:50am 11ft 13s 9s 13 20 mph 995mb 43f 32f
8:50am 9ft 11s 8s 7 11 mph 996.3mb 44f 30f
7:50am 9ft 12s 8s 4 11 mph 996.9mb 44f 29f
6:50am 10ft 12s 8s 4 9 mph 997.7mb 44f 29f
5:50am 10.5ft 10s 8s 11 16 mph 997.9mb 44f 29f
4:50am 11.5ft 13s 8s 18 22 mph 998.6mb 43f 29f
3:50am 12.5ft 14s 8s 22 27 mph 998.3mb 43f 29f